createdAt,value
2023-05-12T00:00:31.064Z,97950.56
2023-05-12T00:02:57.382Z,97959.03
2023-05-12T00:05:23.977Z,97953.13
2023-05-12T00:07:50.270Z,97950.91
2023-05-12T00:10:16.679Z,97953.00
2023-05-12T00:12:43.121Z,97947.53
2023-05-12T00:15:10.037Z,97942.75
2023-05-12T00:17:36.640Z,97948.91
2023-05-12T00:20:03.224Z,97939.63
2023-05-12T00:22:29.582Z,97939.63
2023-05-12T00:24:56.004Z,97945.66
2023-05-12T00:27:22.959Z,97944.84
2023-05-12T00:29:49.618Z,97946.56
2023-05-12T00:32:16.021Z,97941.22
2023-05-12T00:34:42.317Z,97951.06
2023-05-12T00:37:10.119Z,97947.81
2023-05-12T00:39:36.410Z,97941.22
2023-05-12T00:42:02.777Z,97941.56
2023-05-12T00:44:29.088Z,97940.53
2023-05-12T00:46:55.488Z,97941.72
2023-05-12T00:49:22.096Z,97942.06
2023-05-12T00:51:48.495Z,97938.94
2023-05-12T00:54:16.040Z,97933.59
2023-05-12T00:56:42.402Z,97945.09
2023-05-12T00:59:09.050Z,97942.19
2023-05-12T01:01:35.922Z,97937.44
2023-05-12T01:04:02.952Z,97935.81
2023-05-12T01:06:37.784Z,97937.91
2023-05-12T01:09:04.563Z,97934.41
2023-05-12T01:11:30.887Z,97938.59
2023-05-12T01:13:57.260Z,97932.91
2023-05-12T01:16:28.882Z,97934.75
2023-05-12T01:18:56.690Z,97933.34
2023-05-12T01:21:23.172Z,97934.38
2023-05-12T01:23:56.822Z,97928.22
2023-05-12T01:26:23.725Z,97928.44
2023-05-12T01:28:51.142Z,97923.91
2023-05-12T01:31:20.251Z,97924.03
2023-05-12T01:33:47.392Z,97928.09
2023-05-12T01:36:13.724Z,97931.69
2023-05-12T01:38:40.112Z,97924.50
2023-05-12T01:41:06.415Z,97924.50
2023-05-12T01:43:32.735Z,97927.78
2023-05-12T01:45:59.266Z,97917.91
2023-05-12T01:48:25.809Z,97915.59
2023-05-12T01:50:52.180Z,97922.78
2023-05-12T01:53:18.444Z,97921.75
2023-05-12T01:55:44.787Z,97920.72
2023-05-12T01:58:11.251Z,97918.03
2023-05-12T02:00:37.930Z,97919.09
2023-05-12T02:03:04.323Z,97919.09
2023-05-12T02:05:30.720Z,97912.94
2023-05-12T02:07:57.097Z,97924.19
2023-05-12T02:10:23.586Z,97911.31
2023-05-12T02:12:50.054Z,97915.00
2023-05-12T02:15:16.356Z,97912.56
2023-05-12T02:17:42.804Z,97917.44
2023-05-12T02:20:09.695Z,97920.13
2023-05-12T02:22:36.002Z,97916.63
2023-05-12T02:25:02.470Z,97911.06
2023-05-12T02:27:28.797Z,97914.78
2023-05-12T02:29:55.208Z,97911.53
2023-05-12T02:32:21.502Z,97914.78
2023-05-12T02:34:47.805Z,97910.03
2023-05-12T02:37:14.303Z,97913.28
2023-05-12T02:39:40.569Z,97910.97
2023-05-12T02:42:07.168Z,97912.59
2023-05-12T02:44:33.564Z,97914.44
2023-05-12T02:46:59.845Z,97916.06
2023-05-12T02:49:26.203Z,97913.03
2023-05-12T02:51:52.508Z,97917.81
2023-05-12T02:54:18.831Z,97916.19
2023-05-12T02:56:45.195Z,97909.22
2023-05-12T02:59:11.497Z,97910.84
2023-05-12T03:01:38.081Z,97912.47
2023-05-12T03:04:04.578Z,97908.41
2023-05-12T03:06:30.954Z,97899.56
2023-05-12T03:08:57.410Z,97901.19
2023-05-12T03:11:23.745Z,97910.59
2023-05-12T03:13:50.044Z,97903.19
2023-05-12T03:16:17.808Z,97900.50
2023-05-12T03:18:45.186Z,97904.81
2023-05-12T03:21:11.581Z,97904.00
2023-05-12T03:23:37.893Z,97903.75
2023-05-12T03:26:04.214Z,97902.72
2023-05-12T03:28:30.672Z,97910.25
2023-05-12T03:30:56.980Z,97910.84
2023-05-12T03:33:23.408Z,97904.47
2023-05-12T03:35:49.699Z,97908.41
2023-05-12T03:38:16.089Z,97908.06
2023-05-12T03:40:42.376Z,97908.75
2023-05-12T03:43:08.656Z,97909.56
2023-05-12T03:45:34.957Z,97909.34
2023-05-12T03:48:01.270Z,97906.44
2023-05-12T03:50:27.740Z,97903.53
2023-05-12T03:52:54.129Z,97898.19
2023-05-12T03:55:20.440Z,97901.44
2023-05-12T03:57:48.069Z,97899.00
2023-05-12T04:00:14.679Z,97905.25
2023-05-12T04:02:41.029Z,97903.41
2023-05-12T04:05:07.776Z,97901.56
2023-05-12T04:07:34.092Z,97901.31
2023-05-12T04:10:00.554Z,97914.91
2023-05-12T04:12:26.849Z,97904.69
2023-05-12T04:14:53.767Z,97911.19
2023-05-12T04:17:20.127Z,97900.50
2023-05-12T04:19:46.472Z,97905.03
2023-05-12T04:22:12.820Z,97906.44
2023-05-12T04:24:39.086Z,97910.25
2023-05-12T04:27:06.386Z,97913.75
2023-05-12T04:29:32.768Z,97911.88
2023-05-12T04:31:59.181Z,97917.94
2023-05-12T04:34:25.513Z,97923.50
2023-05-12T04:36:51.818Z,97922.69
2023-05-12T04:39:18.226Z,97925.47
2023-05-12T04:41:44.489Z,97928.38
2023-05-12T04:44:10.819Z,97912.69
2023-05-12T04:46:37.241Z,97918.50
2023-05-12T04:49:03.561Z,97925.34
2023-05-12T04:51:29.912Z,97921.66
2023-05-12T04:53:56.197Z,97925.59
2023-05-12T04:56:22.481Z,97925.59
2023-05-12T04:58:48.886Z,97926.75
2023-05-12T05:01:15.284Z,97931.63
2023-05-12T05:03:41.735Z,97922.00
2023-05-12T05:06:08.122Z,97935.47
2023-05-12T05:08:34.508Z,97928.50
2023-05-12T05:11:00.820Z,97925.59
2023-05-12T05:13:27.119Z,97926.22
2023-05-12T05:15:54.404Z,97932.13
2023-05-12T05:18:23.792Z,97933.75
2023-05-12T05:20:57.284Z,97936.09
2023-05-12T05:23:25.059Z,97937.56
2023-05-12T05:25:51.391Z,97934.44
2023-05-12T05:28:17.693Z,97934.81
2023-05-12T05:30:44.072Z,97939.00
2023-05-12T05:33:10.429Z,97935.53
2023-05-12T05:35:36.815Z,97941.63
2023-05-12T05:38:03.170Z,97941.72
2023-05-12T05:40:33.815Z,97938.00
2023-05-12T05:43:05.278Z,97945.91
2023-05-12T05:45:31.811Z,97939.28
2023-05-12T05:47:58.124Z,97941.41
2023-05-12T05:50:24.473Z,97943.94
2023-05-12T05:52:50.800Z,97943.13
2023-05-12T05:55:17.299Z,97951.84
2023-05-12T05:57:43.698Z,97947.66
2023-05-12T06:00:10.562Z,97958.59
2023-05-12T06:02:36.998Z,97953.47
2023-05-12T06:05:03.557Z,97955.34
2023-05-12T06:07:29.872Z,97965.13
2023-05-12T06:09:56.123Z,97955.09
2023-05-12T06:12:22.441Z,97960.09
2023-05-12T06:14:48.725Z,97965.69
2023-05-12T06:17:15.070Z,97965.09
2023-05-12T06:19:41.445Z,97966.03
2023-05-12T06:22:07.733Z,97965.09
2023-05-12T06:24:34.025Z,97972.19
2023-05-12T06:27:00.384Z,97968.78
2023-05-12T06:29:26.742Z,97968.66
2023-05-12T06:31:53.295Z,97974.97
2023-05-12T06:34:20.162Z,97971.56
2023-05-12T06:36:46.564Z,97981.00
2023-05-12T06:39:12.962Z,97980.75
2023-05-12T06:41:39.327Z,97979.38
2023-05-12T06:44:05.664Z,97974.59
2023-05-12T06:46:32.596Z,97981.66
2023-05-12T06:48:59.304Z,97977.22
2023-05-12T06:51:26.087Z,97986.63
2023-05-12T06:53:52.396Z,97982.19
2023-05-12T06:56:18.689Z,97980.56
2023-05-12T06:58:45.002Z,97982.91
2023-05-12T07:01:11.353Z,97976.47
2023-05-12T07:03:37.778Z,97982.88
2023-05-12T07:06:04.457Z,97987.81
2023-05-12T07:08:30.831Z,97987.09
2023-05-12T07:10:59.933Z,97994.41
2023-05-12T07:13:26.463Z,97992.53
2023-05-12T07:15:52.793Z,97989.56
2023-05-12T07:18:19.148Z,97993.66
2023-05-12T07:20:45.517Z,97990.50
2023-05-12T07:23:12.509Z,97998.47
2023-05-12T07:25:38.955Z,97993.34
2023-05-12T07:28:05.427Z,97995.94
2023-05-12T07:30:31.862Z,97989.50
2023-05-12T07:32:58.215Z,97983.66
2023-05-12T07:35:24.537Z,97988.38
2023-05-12T07:37:50.843Z,97996.03
2023-05-12T07:40:17.234Z,97998.97
2023-05-12T07:42:43.555Z,97989.72
2023-05-12T07:45:10.226Z,97998.66
2023-05-12T07:47:36.580Z,97996.44
2023-05-12T07:50:03.128Z,97998.03
2023-05-12T07:52:29.412Z,98000.63
2023-05-12T07:54:56.703Z,98000.53
2023-05-12T07:57:23.277Z,97998.19
2023-05-12T07:59:49.691Z,98001.31
2023-05-12T08:02:16.066Z,98009.69
2023-05-12T08:04:44.380Z,98011.25
2023-05-12T08:07:10.928Z,98005.03
2023-05-12T08:09:37.215Z,98012.84
2023-05-12T08:12:03.739Z,98011.63
2023-05-12T08:14:30.032Z,98007.16
2023-05-12T08:16:56.413Z,98008.22
2023-05-12T08:19:22.754Z,98009.50
2023-05-12T08:21:49.051Z,98006.31
2023-05-12T08:24:15.368Z,98014.56
2023-05-12T08:26:41.682Z,98005.34
2023-05-12T08:29:07.999Z,98014.56
2023-05-12T08:31:34.456Z,98012.13
2023-05-12T08:34:09.761Z,98009.69
2023-05-12T08:36:37.950Z,98013.31
2023-05-12T08:39:04.442Z,98014.50
2023-05-12T08:41:33.468Z,98019.13
2023-05-12T08:44:00.258Z,98017.31
2023-05-12T08:46:26.735Z,98015.00
2023-05-12T08:48:53.856Z,98014.75
2023-05-12T08:51:20.818Z,98014.38
2023-05-12T08:53:47.629Z,98016.25
2023-05-12T08:58:46.879Z,98027.34
2023-05-12T09:01:13.576Z,98023.69
2023-05-12T09:03:40.103Z,98031.06
2023-05-12T09:06:07.210Z,98030.25
2023-05-12T09:08:34.029Z,98027.75
2023-05-12T09:11:01.112Z,98031.72
2023-05-12T09:13:38.591Z,98030.47
2023-05-12T09:16:11.155Z,98031.41
2023-05-12T09:18:55.256Z,98033.50
2023-05-12T09:21:22.259Z,98035.44
2023-05-12T09:23:52.966Z,98028.88
2023-05-12T09:26:19.462Z,98041.00
2023-05-12T09:28:45.761Z,98043.50
2023-05-12T09:31:20.182Z,98039.94
2023-05-12T09:33:46.637Z,98047.00
2023-05-12T09:36:23.870Z,98045.88
2023-05-12T09:39:06.399Z,98046.31
2023-05-12T09:41:44.146Z,98042.13
2023-05-12T09:44:14.692Z,98048.78
2023-05-12T09:46:41.032Z,98045.88
2023-05-12T09:49:07.367Z,98037.34
2023-05-12T09:51:33.760Z,98050.94
2023-05-12T09:54:00.811Z,98047.16
2023-05-12T09:56:28.865Z,98041.28
2023-05-12T09:58:56.518Z,98043.25
2023-05-12T10:01:24.250Z,98040.59
2023-05-12T10:03:58.228Z,98042.34
2023-05-12T10:06:33.216Z,98037.00
2023-05-12T10:09:16.027Z,98035.84
2023-05-12T10:11:44.003Z,98035.97
2023-05-12T10:14:10.703Z,98030.09
2023-05-12T10:16:38.408Z,98026.66
2023-05-12T10:19:05.834Z,98024.56
2023-05-12T10:21:34.413Z,98030.50
2023-05-12T10:24:03.588Z,98032.41
2023-05-12T10:26:32.326Z,98031.63
2023-05-12T10:28:59.281Z,98029.97
2023-05-12T10:31:26.693Z,98029.44
2023-05-12T10:34:01.084Z,98030.59
2023-05-12T10:36:27.664Z,98023.31
2023-05-12T10:38:54.781Z,98032.13
2023-05-12T10:41:31.291Z,98029.00
2023-05-12T10:43:57.826Z,98041.91
2023-05-12T10:46:24.334Z,98037.75
2023-05-12T10:49:10.586Z,98039.59
2023-05-12T10:51:42.904Z,98035.22
2023-05-12T10:54:11.587Z,98048.00
2023-05-12T10:56:38.141Z,98036.78
2023-05-12T10:59:19.747Z,98034.66
2023-05-12T11:02:13.451Z,98044.09
2023-05-12T11:04:48.288Z,98052.00
2023-05-12T11:07:16.802Z,98042.25
2023-05-12T11:09:56.709Z,98042.50
2023-05-12T11:12:25.995Z,98050.13
2023-05-12T11:14:52.450Z,98049.91
2023-05-12T11:17:18.812Z,98047.31
2023-05-12T11:19:47.468Z,98047.22
2023-05-12T11:22:16.327Z,98053.00
2023-05-12T11:24:42.921Z,98052.75
2023-05-12T11:27:14.830Z,98059.78
2023-05-12T11:29:41.672Z,98058.00
2023-05-12T11:32:11.708Z,98062.06
2023-05-12T11:34:38.891Z,98063.06
2023-05-12T11:37:05.527Z,98062.22
2023-05-12T11:39:32.281Z,98062.25
2023-05-12T11:42:12.911Z,98068.94
2023-05-12T11:44:49.851Z,98067.09
2023-05-12T11:47:17.239Z,98060.31
2023-05-12T11:49:47.516Z,98056.13
2023-05-12T11:52:14.146Z,98062.81
2023-05-12T11:54:48.203Z,98067.63
2023-05-12T11:57:33.881Z,98067.16
2023-05-12T12:00:02.814Z,98065.13
2023-05-12T12:02:29.380Z,98061.25
2023-05-12T12:04:56.185Z,98066.34
2023-05-12T12:07:36.374Z,98079.38
2023-05-12T12:10:16.821Z,98081.31
2023-05-12T12:12:44.255Z,98081.84
2023-05-12T12:15:11.295Z,98077.06
2023-05-12T12:17:38.173Z,98081.25
2023-05-12T12:20:05.152Z,98086.88
2023-05-12T12:22:31.450Z,98091.91
2023-05-12T12:24:57.782Z,98094.03
2023-05-12T12:27:24.099Z,98094.44
2023-05-12T12:29:50.368Z,98098.47
2023-05-12T12:32:16.673Z,98097.34
2023-05-12T12:34:43.094Z,98096.28
2023-05-12T12:37:09.487Z,98095.91
2023-05-12T12:39:35.907Z,98091.88
2023-05-12T12:42:02.489Z,98098.41
2023-05-12T12:44:28.902Z,98102.56
2023-05-12T12:46:55.295Z,98097.66
2023-05-12T12:49:21.581Z,98103.91
2023-05-12T12:51:48.152Z,98100.19
2023-05-12T12:54:14.736Z,98099.84
2023-05-12T12:56:41.168Z,98108.41
2023-05-12T12:59:07.572Z,98100.41
2023-05-12T13:01:34.024Z,98100.69
2023-05-12T13:04:00.511Z,98100.69
2023-05-12T13:06:27.189Z,98111.75
2023-05-12T13:08:53.602Z,98104.19
2023-05-12T13:11:20.049Z,98102.16
2023-05-12T13:13:46.346Z,98104.16
2023-05-12T13:16:12.659Z,98115.00
2023-05-12T13:18:38.993Z,98108.78
2023-05-12T13:21:05.553Z,98109.81
2023-05-12T13:23:32.007Z,98110.06
2023-05-12T13:25:58.491Z,98115.63
2023-05-12T13:28:24.795Z,98110.25
2023-05-12T13:30:54.468Z,98105.34
2023-05-12T13:33:21.257Z,98105.81
2023-05-12T13:35:47.559Z,98112.91
2023-05-12T13:38:13.963Z,98112.78
2023-05-12T13:40:40.301Z,98115.56
2023-05-12T13:43:06.584Z,98112.31
2023-05-12T13:45:32.891Z,98112.34
2023-05-12T13:47:59.190Z,98112.34
2023-05-12T13:50:25.734Z,98113.47
2023-05-12T13:52:52.022Z,98119.78
2023-05-12T13:55:21.408Z,98114.69
2023-05-12T13:57:48.225Z,98108.53
2023-05-12T14:00:14.947Z,98114.53
2023-05-12T14:02:41.333Z,98118.06
2023-05-12T14:05:08.303Z,98115.59
2023-05-12T14:07:34.646Z,98112.53
2023-05-12T14:10:01.150Z,98116.41
2023-05-12T14:12:27.779Z,98113.63
2023-05-12T14:14:54.773Z,98115.47
2023-05-12T14:17:24.477Z,98112.44
2023-05-12T14:19:50.779Z,98111.13
2023-05-12T14:22:25.343Z,98114.97
2023-05-12T14:24:52.768Z,98121.78
2023-05-12T14:27:19.094Z,98116.72
2023-05-12T14:29:45.396Z,98116.47
2023-05-12T14:32:11.823Z,98120.06
2023-05-12T14:34:38.151Z,98115.75
2023-05-12T14:37:04.649Z,98119.00
2023-05-12T14:39:31.043Z,98117.94
2023-05-12T14:41:57.455Z,98121.34
2023-05-12T14:44:23.783Z,98131.16
2023-05-12T14:46:50.098Z,98126.03
2023-05-12T14:49:16.503Z,98127.75
2023-05-12T14:51:42.785Z,98130.19
2023-05-12T14:54:21.910Z,98125.94
2023-05-12T14:56:51.492Z,98127.25
2023-05-12T14:59:17.808Z,98129.16
2023-05-12T15:01:44.221Z,98131.56
2023-05-12T15:04:10.701Z,98127.00
2023-05-12T15:06:36.970Z,98135.78
2023-05-12T15:09:03.780Z,98142.66
2023-05-12T15:11:30.188Z,98134.28
2023-05-12T15:13:56.586Z,98137.44
2023-05-12T15:16:22.916Z,98137.09
2023-05-12T15:18:49.228Z,98134.19
2023-05-12T15:21:15.615Z,98134.09
2023-05-12T15:23:41.898Z,98134.63
2023-05-12T15:26:27.040Z,98120.59
2023-05-12T15:28:54.477Z,98127.19
2023-05-12T15:31:21.006Z,98129.88
2023-05-12T15:33:47.361Z,98130.47
2023-05-12T15:36:13.899Z,98126.13
2023-05-12T15:38:40.178Z,98132.66
2023-05-12T15:41:06.573Z,98128.22
2023-05-12T15:43:32.888Z,98124.78
2023-05-12T15:45:59.327Z,98128.56
2023-05-12T15:48:25.747Z,98121.28
2023-05-12T15:50:52.182Z,98132.28
2023-05-12T15:53:18.494Z,98120.63
2023-05-12T15:55:44.781Z,98116.34
2023-05-12T15:58:11.206Z,98121.00
2023-05-12T16:00:37.779Z,98110.78
2023-05-12T16:03:04.182Z,98116.22
2023-05-12T16:05:30.563Z,98116.84
2023-05-12T16:07:56.959Z,98116.13
2023-05-12T16:10:23.240Z,98121.25
2023-05-12T16:12:49.549Z,98114.78
2023-05-12T16:15:15.918Z,98113.16
2023-05-12T16:17:42.216Z,98114.72
2023-05-12T16:20:09.048Z,98115.81
2023-05-12T16:22:35.413Z,98112.44
2023-05-12T16:25:01.737Z,98110.81
2023-05-12T16:27:28.018Z,98102.44
2023-05-12T16:29:54.494Z,98107.22
2023-05-12T16:32:20.868Z,98106.91
2023-05-12T16:34:47.166Z,98101.38
2023-05-12T16:37:13.537Z,98100.84
2023-05-12T16:39:39.878Z,98094.25
2023-05-12T16:42:06.610Z,98097.91
2023-05-12T16:44:32.935Z,98100.59
2023-05-12T16:46:59.208Z,98102.81
2023-05-12T16:49:25.484Z,98106.06
2023-05-12T16:51:51.833Z,98112.19
2023-05-12T16:54:18.145Z,98113.78
2023-05-12T16:56:44.446Z,98116.41
2023-05-12T16:59:10.943Z,98116.13
2023-05-12T17:01:37.305Z,98106.38
2023-05-12T17:04:03.692Z,98104.69
2023-05-12T17:06:30.159Z,98101.06
2023-05-12T17:08:56.601Z,98109.34
2023-05-12T17:11:23.227Z,98109.22
2023-05-12T17:13:49.528Z,98109.66
2023-05-12T17:16:16.041Z,98118.75
2023-05-12T17:21:11.740Z,98118.66
2023-05-12T17:23:38.089Z,98123.56
2023-05-12T17:26:04.646Z,98119.56
2023-05-12T17:28:30.986Z,98120.13
2023-05-12T17:30:57.415Z,98126.88
2023-05-12T17:33:23.779Z,98118.28
2023-05-12T17:36:03.901Z,98124.47
2023-05-12T17:38:36.430Z,98128.22
2023-05-12T17:41:02.901Z,98132.25
2023-05-12T17:43:29.385Z,98129.28
2023-05-12T17:45:56.488Z,98135.69
2023-05-12T17:48:22.867Z,98130.75
2023-05-12T17:50:49.214Z,98129.63
2023-05-12T17:53:15.555Z,98131.69
2023-05-12T17:55:41.843Z,98138.41
2023-05-12T17:58:08.219Z,98144.84
2023-05-12T18:00:34.544Z,98137.94
2023-05-12T18:03:01.001Z,98136.00
2023-05-12T18:05:27.424Z,98143.25
2023-05-12T18:07:53.757Z,98141.31
2023-05-12T18:10:20.114Z,98145.31
2023-05-12T18:12:46.453Z,98143.06
2023-05-12T18:15:12.749Z,98151.59
2023-05-12T18:17:39.162Z,98150.56
2023-05-12T18:20:06.301Z,98147.78
2023-05-12T18:22:32.626Z,98154.41
2023-05-12T18:24:58.965Z,98159.38
2023-05-12T18:27:25.334Z,98165.97
2023-05-12T18:29:51.635Z,98165.47
2023-05-12T18:32:17.980Z,98160.34
2023-05-12T18:34:44.315Z,98172.41
2023-05-12T18:37:11.141Z,98171.41
2023-05-12T18:39:37.565Z,98178.34
2023-05-12T18:42:04.093Z,98172.47
2023-05-12T18:44:30.476Z,98181.13
2023-05-12T18:46:56.875Z,98178.97
2023-05-12T18:49:23.270Z,98184.91
2023-05-12T18:51:49.648Z,98192.75
2023-05-12T18:54:15.981Z,98192.03
2023-05-12T18:56:42.319Z,98203.34
2023-05-12T18:59:08.655Z,98194.28
2023-05-12T19:01:35.191Z,98201.22
2023-05-12T19:04:01.665Z,98205.66
2023-05-12T19:06:28.060Z,98210.56
2023-05-12T19:08:54.397Z,98206.56
2023-05-12T19:11:20.706Z,98215.41
2023-05-12T19:13:47.021Z,98208.75
2023-05-12T19:16:13.466Z,98207.22
2023-05-12T19:18:39.922Z,98208.38
2023-05-12T19:21:06.416Z,98213.81
2023-05-12T19:23:32.808Z,98218.44
2023-05-12T19:25:59.637Z,98223.91
2023-05-12T19:28:25.972Z,98213.72
2023-05-12T19:30:52.504Z,98226.16
2023-05-12T19:33:18.892Z,98223.81
2023-05-12T19:35:45.332Z,98224.91
2023-05-12T19:38:11.711Z,98225.22
2023-05-12T19:40:38.150Z,98225.91
2023-05-12T19:43:04.681Z,98216.94
2023-05-12T19:45:31.084Z,98227.44
2023-05-12T19:47:57.522Z,98220.53
2023-05-12T19:50:24.004Z,98225.94
2023-05-12T19:52:50.719Z,98226.63
2023-05-12T19:55:17.122Z,98233.47
2023-05-12T19:57:43.511Z,98227.56
2023-05-12T20:00:10.459Z,98225.41
2023-05-12T20:02:37.106Z,98236.78
2023-05-12T20:05:03.936Z,98230.00
2023-05-12T20:07:30.292Z,98233.31
2023-05-12T20:09:56.720Z,98235.84
2023-05-12T20:12:23.079Z,98238.97
2023-05-12T20:14:49.442Z,98239.41
2023-05-12T20:17:15.783Z,98240.44
2023-05-12T20:19:42.176Z,98251.56
2023-05-12T20:22:08.474Z,98247.66
2023-05-12T20:24:34.788Z,98247.06
2023-05-12T20:27:01.140Z,98254.91
2023-05-12T20:29:27.492Z,98252.09
2023-05-12T20:31:54.189Z,98255.41
2023-05-12T20:34:20.798Z,98260.38
2023-05-12T20:36:47.255Z,98260.38
2023-05-12T20:39:14.388Z,98248.47
2023-05-12T20:41:42.433Z,98251.81
2023-05-12T20:44:09.334Z,98248.53
2023-05-12T20:46:38.243Z,98243.63
2023-05-12T20:49:06.531Z,98244.88
2023-05-12T20:51:32.899Z,98255.41
2023-05-12T20:53:59.276Z,98241.47
2023-05-12T20:56:25.726Z,98242.69
2023-05-12T20:58:52.308Z,98239.63
2023-05-12T21:01:18.975Z,98236.34
2023-05-12T21:03:45.400Z,98243.97
2023-05-12T21:06:11.829Z,98239.09
2023-05-12T21:08:38.566Z,98238.47
2023-05-12T21:11:13.406Z,98236.47
2023-05-12T21:13:39.891Z,98234.84
2023-05-12T21:16:06.249Z,98242.66
2023-05-12T21:18:32.642Z,98244.56
2023-05-12T21:20:58.997Z,98231.88
2023-05-12T21:23:25.389Z,98238.44
2023-05-12T21:25:55.364Z,98250.53
2023-05-12T21:28:21.680Z,98237.63
2023-05-12T21:30:47.980Z,98238.06
2023-05-12T21:33:14.492Z,98243.00
2023-05-12T21:35:40.759Z,98246.91
2023-05-12T21:38:07.068Z,98247.31
2023-05-12T21:40:33.371Z,98238.50
2023-05-12T21:42:59.690Z,98236.06
2023-05-12T21:45:26.080Z,98231.97
2023-05-12T21:47:52.598Z,98222.34
2023-05-12T21:50:19.109Z,98230.34
2023-05-12T21:52:45.487Z,98235.66
2023-05-12T21:55:11.932Z,98246.50
2023-05-12T21:57:38.617Z,98249.59
2023-05-12T22:00:06.625Z,98252.47
2023-05-12T22:02:33.392Z,98248.59
2023-05-12T22:04:59.702Z,98253.31
2023-05-12T22:07:25.994Z,98252.50
2023-05-12T22:09:52.464Z,98254.56
2023-05-12T22:12:18.774Z,98263.81
2023-05-12T22:14:45.210Z,98258.91
2023-05-12T22:17:11.496Z,98254.59
2023-05-12T22:19:37.987Z,98255.81
2023-05-12T22:22:04.508Z,98256.84
2023-05-12T22:24:30.797Z,98254.59
2023-05-12T22:26:57.109Z,98250.31
2023-05-12T22:29:23.578Z,98243.78
2023-05-12T22:31:49.908Z,98242.78
2023-05-12T22:34:16.278Z,98239.88
2023-05-12T22:36:42.669Z,98245.63
2023-05-12T22:39:08.989Z,98248.72
2023-05-12T22:41:35.440Z,98239.31
2023-05-12T22:44:01.722Z,98245.88
2023-05-12T22:46:28.098Z,98239.31
2023-05-12T22:48:54.583Z,98251.00
2023-05-12T22:51:20.874Z,98252.03
2023-05-12T22:53:47.193Z,98248.75
2023-05-12T22:56:13.494Z,98254.47
2023-05-12T22:58:39.845Z,98251.41
2023-05-12T23:01:06.329Z,98248.34
2023-05-12T23:03:32.723Z,98248.53
2023-05-12T23:05:59.026Z,98246.09
2023-05-12T23:08:25.316Z,98239.94
2023-05-12T23:10:51.586Z,98241.59
2023-05-12T23:13:17.982Z,98230.94
2023-05-12T23:15:44.320Z,98243.81
2023-05-12T23:18:10.739Z,98246.28
2023-05-12T23:20:37.063Z,98242.19
2023-05-12T23:23:03.373Z,98240.34
2023-05-12T23:25:29.952Z,98238.50
2023-05-12T23:27:56.327Z,98236.88
2023-05-12T23:30:22.850Z,98236.44
2023-05-12T23:32:49.422Z,98236.25
2023-05-12T23:35:15.768Z,98233.38
2023-05-12T23:37:42.059Z,98227.03
2023-05-12T23:40:09.158Z,98236.84
2023-05-12T23:42:35.446Z,98227.44
2023-05-12T23:45:01.774Z,98225.81
2023-05-12T23:47:28.110Z,98224.16
2023-05-12T23:49:54.554Z,98226.63
2023-05-12T23:52:20.813Z,98221.53
2023-05-12T23:54:47.126Z,98228.47
2023-05-12T23:57:13.463Z,98224.81
2023-05-12T23:59:39.908Z,98221.94
